createdAt,value
2017-08-19T00:00:26.963Z,99.99
2017-08-19T00:01:27.536Z,99.99
2017-08-19T00:02:28.109Z,99.99
2017-08-19T00:03:28.681Z,99.99
2017-08-19T00:04:29.255Z,99.99
2017-08-19T00:05:29.825Z,99.99
2017-08-19T00:06:30.397Z,99.99
2017-08-19T00:07:30.969Z,99.99
2017-08-19T00:08:31.541Z,99.99
2017-08-19T00:09:32.113Z,99.99
2017-08-19T00:10:32.697Z,99.99
2017-08-19T00:11:33.270Z,99.99
2017-08-19T00:12:33.844Z,99.99
2017-08-19T00:13:34.428Z,99.99
2017-08-19T00:14:35.001Z,99.99
2017-08-19T00:15:35.585Z,99.99
2017-08-19T00:16:36.158Z,99.99
2017-08-19T00:17:36.729Z,99.99
2017-08-19T00:18:37.301Z,99.99
2017-08-19T00:19:37.893Z,99.99
2017-08-19T00:20:38.446Z,99.99
2017-08-19T00:21:39.019Z,99.99
2017-08-19T00:22:39.591Z,99.99
2017-08-19T00:23:40.162Z,99.99
2017-08-19T00:24:40.738Z,99.99
2017-08-19T00:25:41.307Z,99.99
2017-08-19T00:26:41.877Z,99.99
2017-08-19T00:27:42.451Z,99.99
2017-08-19T00:28:43.023Z,99.99
2017-08-19T00:29:43.595Z,99.99
2017-08-19T00:30:44.166Z,99.99
2017-08-19T00:31:44.739Z,99.99
2017-08-19T00:32:45.311Z,99.99
2017-08-19T00:33:45.882Z,99.99
2017-08-19T00:34:46.454Z,99.99
2017-08-19T00:35:47.042Z,99.99
2017-08-19T00:36:47.613Z,99.99
2017-08-19T00:37:48.182Z,99.99
2017-08-19T00:38:48.756Z,99.99
2017-08-19T00:39:49.328Z,99.99
2017-08-19T00:40:49.902Z,99.99
2017-08-19T00:41:50.474Z,99.99
2017-08-19T00:42:51.048Z,99.99
2017-08-19T00:43:51.618Z,99.99
2017-08-19T00:44:52.192Z,99.99
2017-08-19T00:45:52.763Z,99.99
2017-08-19T00:46:53.347Z,99.99
2017-08-19T00:47:53.920Z,99.99
2017-08-19T00:48:54.504Z,99.99
2017-08-19T00:49:55.077Z,99.99
2017-08-19T00:50:55.647Z,99.99
2017-08-19T00:51:56.218Z,99.99
2017-08-19T00:52:56.788Z,99.99
2017-08-19T00:53:57.361Z,99.99
2017-08-19T00:54:57.933Z,99.99
2017-08-19T00:55:58.506Z,99.99
2017-08-19T00:56:59.077Z,99.99
2017-08-19T00:57:59.648Z,99.99
2017-08-19T00:59:00.220Z,99.99
2017-08-19T01:00:00.793Z,99.99
2017-08-19T01:01:01.364Z,99.99
2017-08-19T01:02:01.936Z,99.99
2017-08-19T01:03:02.507Z,99.99
2017-08-19T01:04:03.078Z,99.99
2017-08-19T01:05:03.652Z,99.99
2017-08-19T01:06:04.222Z,99.99
2017-08-19T01:07:04.794Z,99.99
2017-08-19T01:08:05.369Z,99.99
2017-08-19T01:09:05.938Z,99.99
2017-08-19T01:10:06.510Z,99.99
2017-08-19T01:11:07.082Z,99.99
2017-08-19T01:12:07.654Z,99.99
2017-08-19T01:13:08.226Z,99.99
2017-08-19T01:14:08.798Z,99.99
2017-08-19T01:15:09.370Z,99.99
2017-08-19T01:16:09.942Z,99.99
2017-08-19T01:17:10.512Z,99.99
2017-08-19T01:18:11.089Z,99.99
2017-08-19T01:19:11.655Z,99.99
2017-08-19T01:20:12.229Z,99.99
2017-08-19T01:21:12.798Z,99.99
2017-08-19T01:22:13.372Z,99.99
2017-08-19T01:23:13.944Z,99.99
2017-08-19T01:24:14.527Z,99.99
2017-08-19T01:25:15.102Z,99.99
2017-08-19T01:26:15.672Z,99.99
2017-08-19T01:27:16.247Z,99.99
2017-08-19T01:28:16.818Z,99.99
2017-08-19T01:29:17.393Z,99.99
2017-08-19T01:30:17.965Z,99.99
2017-08-19T01:31:18.537Z,99.99
2017-08-19T01:32:19.109Z,99.99
2017-08-19T01:33:19.680Z,99.99
2017-08-19T01:34:20.253Z,99.99
2017-08-19T01:35:20.824Z,99.99
2017-08-19T01:36:21.397Z,99.99
2017-08-19T01:37:21.979Z,99.99
2017-08-19T01:38:22.555Z,99.99
2017-08-19T01:39:23.137Z,99.99
2017-08-19T01:40:23.708Z,99.99
2017-08-19T01:41:24.280Z,99.99
2017-08-19T01:42:24.851Z,99.99
2017-08-19T01:43:25.423Z,99.99
2017-08-19T01:44:25.995Z,99.99
2017-08-19T01:45:26.578Z,99.99
2017-08-19T01:46:27.155Z,99.99
2017-08-19T01:47:27.729Z,99.99
2017-08-19T01:48:28.297Z,99.99
2017-08-19T01:49:28.872Z,99.99
2017-08-19T01:50:29.443Z,99.99
2017-08-19T01:51:30.016Z,99.99
2017-08-19T01:52:30.600Z,99.99
2017-08-19T01:53:31.175Z,99.99
2017-08-19T01:54:31.748Z,99.99
2017-08-19T01:55:32.321Z,99.99
2017-08-19T01:56:32.893Z,99.99
2017-08-19T01:57:33.469Z,99.99
2017-08-19T01:58:34.037Z,99.99
2017-08-19T01:59:34.610Z,99.99
2017-08-19T02:00:35.183Z,99.99
2017-08-19T02:01:35.766Z,99.99
2017-08-19T02:02:36.341Z,99.99
2017-08-19T02:03:36.914Z,99.99
2017-08-19T02:04:37.486Z,99.99
2017-08-19T02:05:38.060Z,99.99
2017-08-19T02:06:38.631Z,99.99
2017-08-19T02:07:39.204Z,99.99
2017-08-19T02:08:39.777Z,99.99
2017-08-19T02:09:40.349Z,99.99
2017-08-19T02:10:40.922Z,99.99
2017-08-19T02:11:41.493Z,99.99
2017-08-19T02:12:42.064Z,99.99
2017-08-19T02:13:42.636Z,99.99
2017-08-19T02:14:43.208Z,99.99
2017-08-19T02:15:43.792Z,99.99
2017-08-19T02:16:44.366Z,99.99
2017-08-19T02:17:44.942Z,99.99
2017-08-19T02:18:45.516Z,99.99
2017-08-19T02:19:46.087Z,99.99
2017-08-19T02:20:46.658Z,99.99
2017-08-19T02:21:47.230Z,99.99
2017-08-19T02:22:47.801Z,99.99
2017-08-19T02:23:48.372Z,99.99
2017-08-19T02:24:48.945Z,99.99
2017-08-19T02:25:49.518Z,99.99
2017-08-19T02:26:50.091Z,99.99
2017-08-19T02:27:50.662Z,99.99
2017-08-19T02:28:51.234Z,99.99
2017-08-19T02:29:51.807Z,99.99
2017-08-19T02:30:52.377Z,99.99
2017-08-19T02:31:52.949Z,99.99
2017-08-19T02:32:53.520Z,99.99
2017-08-19T02:33:54.104Z,99.99
2017-08-19T02:34:54.676Z,99.99
2017-08-19T02:35:55.248Z,99.99
2017-08-19T02:36:55.820Z,99.99
2017-08-19T02:37:56.393Z,99.99
2017-08-19T02:38:56.965Z,99.99
2017-08-19T02:39:57.538Z,99.99
2017-08-19T02:40:58.117Z,99.99
2017-08-19T02:41:58.694Z,99.99
2017-08-19T02:42:59.267Z,99.99
2017-08-19T02:43:59.839Z,99.99
2017-08-19T02:45:00.414Z,99.99
2017-08-19T02:46:00.996Z,99.99
2017-08-19T02:47:01.567Z,99.99
2017-08-19T02:48:02.138Z,99.99
2017-08-19T02:49:02.710Z,99.99
2017-08-19T02:50:03.281Z,99.99
2017-08-19T02:51:03.852Z,99.99
2017-08-19T02:52:04.435Z,99.99
2017-08-19T02:53:05.007Z,99.99
2017-08-19T02:54:05.581Z,99.99
2017-08-19T02:55:06.152Z,99.99
2017-08-19T02:56:06.725Z,99.99
2017-08-19T02:57:07.297Z,99.99
2017-08-19T02:58:07.868Z,99.99
2017-08-19T02:59:08.440Z,99.99
2017-08-19T03:00:09.012Z,99.99
2017-08-19T03:01:09.586Z,99.99
2017-08-19T03:02:10.156Z,99.99
2017-08-19T03:03:10.727Z,99.99
2017-08-19T03:04:11.301Z,99.99
2017-08-19T03:05:11.872Z,99.99
2017-08-19T03:06:12.444Z,99.99
2017-08-19T03:07:13.015Z,99.99
2017-08-19T03:08:13.587Z,99.99
2017-08-19T03:09:14.159Z,99.99
2017-08-19T03:10:14.731Z,99.99
2017-08-19T03:11:15.302Z,99.99
2017-08-19T03:12:15.875Z,99.99
2017-08-19T03:13:16.458Z,99.99
2017-08-19T03:14:17.029Z,99.99
2017-08-19T03:15:17.603Z,99.99
2017-08-19T03:16:18.187Z,99.99
2017-08-19T03:17:18.759Z,99.99
2017-08-19T03:18:19.332Z,99.99
2017-08-19T03:19:19.906Z,99.99
2017-08-19T03:20:20.478Z,99.99
2017-08-19T03:21:21.049Z,99.99
2017-08-19T03:22:21.623Z,99.99
2017-08-19T03:23:22.195Z,99.99
2017-08-19T03:24:22.769Z,99.99
2017-08-19T03:25:23.340Z,99.99
2017-08-19T03:26:23.913Z,99.99
2017-08-19T03:27:24.489Z,99.99
2017-08-19T03:28:25.070Z,99.99
2017-08-19T03:29:25.643Z,99.99
2017-08-19T03:30:26.215Z,99.99
2017-08-19T03:31:26.789Z,99.99
2017-08-19T03:32:27.360Z,99.99
2017-08-19T03:33:27.933Z,99.99
2017-08-19T03:34:28.505Z,99.99
2017-08-19T03:35:29.077Z,99.99
2017-08-19T03:36:29.648Z,99.99
2017-08-19T03:37:30.221Z,99.99
2017-08-19T03:38:30.791Z,99.99
2017-08-19T03:39:31.364Z,99.99
2017-08-19T03:40:31.937Z,99.99
2017-08-19T03:41:32.518Z,99.99
2017-08-19T03:42:33.091Z,99.99
2017-08-19T03:43:33.668Z,99.99
2017-08-19T03:44:34.237Z,99.99
2017-08-19T03:45:34.809Z,99.99
2017-08-19T03:46:35.393Z,99.99
2017-08-19T03:47:35.977Z,99.99
2017-08-19T03:48:36.550Z,99.99
2017-08-19T03:49:37.121Z,99.99
2017-08-19T03:50:37.693Z,99.99
2017-08-19T03:51:38.265Z,99.99
2017-08-19T03:52:38.836Z,99.99
2017-08-19T03:53:39.409Z,99.99
2017-08-19T03:54:39.980Z,99.99
2017-08-19T03:55:40.551Z,99.99
2017-08-19T03:56:41.123Z,99.99
2017-08-19T03:57:41.694Z,99.99
2017-08-19T03:58:42.265Z,99.99
2017-08-19T03:59:42.836Z,99.99
2017-08-19T04:00:43.407Z,99.99
2017-08-19T04:01:43.979Z,99.99
2017-08-19T04:02:44.550Z,99.99
2017-08-19T04:03:45.122Z,99.99
2017-08-19T04:04:45.693Z,99.99
2017-08-19T04:05:46.263Z,99.99
2017-08-19T04:06:46.835Z,99.99
2017-08-19T04:07:47.406Z,99.99
2017-08-19T04:08:47.978Z,99.99
2017-08-19T04:09:48.550Z,99.99
2017-08-19T04:10:49.134Z,99.99
2017-08-19T04:11:49.705Z,99.99
2017-08-19T04:12:50.279Z,99.99
2017-08-19T04:13:50.861Z,99.99
2017-08-19T04:14:51.433Z,99.99
2017-08-19T04:15:52.007Z,99.99
2017-08-19T04:16:52.590Z,99.99
2017-08-19T04:17:53.161Z,99.99
2017-08-19T04:18:53.733Z,99.99
2017-08-19T04:19:54.304Z,99.99
2017-08-19T04:20:54.876Z,99.99
2017-08-19T04:21:55.448Z,99.99
2017-08-19T04:22:56.022Z,99.99
2017-08-19T04:23:56.607Z,99.99
2017-08-19T04:24:57.181Z,99.99
2017-08-19T04:25:57.753Z,99.99
2017-08-19T04:26:58.328Z,99.99
2017-08-19T04:27:58.905Z,99.99
2017-08-19T04:28:59.472Z,99.99
2017-08-19T04:30:00.058Z,99.99
2017-08-19T04:31:00.630Z,99.99
2017-08-19T04:32:01.216Z,99.99
2017-08-19T04:33:01.791Z,99.99
2017-08-19T04:34:02.363Z,99.99
2017-08-19T04:35:02.940Z,99.99
2017-08-19T04:36:03.524Z,99.99
2017-08-19T04:37:04.097Z,99.99
2017-08-19T04:38:04.671Z,99.99
2017-08-19T04:39:05.250Z,99.99
2017-08-19T04:40:05.818Z,99.99
2017-08-19T04:41:06.404Z,99.99
2017-08-19T04:42:06.988Z,99.99
2017-08-19T04:43:07.562Z,99.99
2017-08-19T04:44:08.137Z,99.99
2017-08-19T04:45:08.709Z,99.99
2017-08-19T04:46:09.284Z,99.99
2017-08-19T04:47:09.856Z,99.99
2017-08-19T04:48:10.430Z,99.99
2017-08-19T04:49:11.002Z,99.99
2017-08-19T04:50:11.574Z,99.99
2017-08-19T04:51:12.147Z,99.99
2017-08-19T04:52:12.720Z,99.99
2017-08-19T04:53:13.292Z,99.99
2017-08-19T04:54:13.864Z,99.99
2017-08-19T04:55:14.441Z,99.99
2017-08-19T04:56:15.013Z,99.99
2017-08-19T04:57:15.599Z,99.99
2017-08-19T04:58:16.173Z,99.99
2017-08-19T04:59:16.750Z,99.99
2017-08-19T05:00:17.323Z,99.99
2017-08-19T05:01:17.898Z,99.99
2017-08-19T05:02:18.472Z,99.99
2017-08-19T05:03:19.046Z,99.99
2017-08-19T05:04:19.619Z,99.99
2017-08-19T05:05:20.196Z,99.99
2017-08-19T05:06:20.767Z,99.99
2017-08-19T05:07:22.854Z,99.99
2017-08-19T05:08:23.430Z,99.99
2017-08-19T05:09:24.016Z,99.99
2017-08-19T05:10:24.593Z,99.99
2017-08-19T05:11:25.176Z,99.99
2017-08-19T05:12:25.762Z,99.99
2017-08-19T05:13:26.335Z,99.99
2017-08-19T05:14:26.910Z,99.99
2017-08-19T05:15:27.485Z,99.99
2017-08-19T05:16:28.071Z,99.99
2017-08-19T05:17:28.645Z,99.99
2017-08-19T05:18:29.218Z,99.99
2017-08-19T05:19:29.793Z,99.99
2017-08-19T05:20:30.367Z,99.99
2017-08-19T05:21:30.941Z,99.99
2017-08-19T05:22:31.517Z,99.99
2017-08-19T05:23:32.091Z,99.99
2017-08-19T05:24:32.672Z,99.99
2017-08-19T05:25:33.239Z,99.99
2017-08-19T05:26:33.813Z,99.99
2017-08-19T05:27:34.386Z,99.99
2017-08-19T05:28:34.962Z,99.99
2017-08-19T05:29:35.540Z,99.99
2017-08-19T05:30:36.113Z,99.99
2017-08-19T05:31:36.689Z,99.99
2017-08-19T05:32:37.264Z,99.99
2017-08-19T05:33:37.840Z,99.99
2017-08-19T05:34:38.417Z,99.99
2017-08-19T05:35:38.991Z,99.99
2017-08-19T05:36:39.567Z,99.99
2017-08-19T05:37:40.155Z,99.99
2017-08-19T05:38:40.729Z,99.99
2017-08-19T05:39:41.304Z,99.99
2017-08-19T05:40:41.879Z,99.99
2017-08-19T05:41:42.455Z,99.99
2017-08-19T05:42:43.034Z,99.99
2017-08-19T05:43:43.606Z,99.99
2017-08-19T05:44:44.183Z,99.99
2017-08-19T05:45:44.758Z,99.99
2017-08-19T05:46:45.332Z,99.99
2017-08-19T05:47:45.911Z,99.99
2017-08-19T05:48:46.485Z,99.99
2017-08-19T05:49:47.065Z,99.99
2017-08-19T05:50:47.634Z,99.99
2017-08-19T05:51:48.210Z,99.99
2017-08-19T05:52:48.788Z,99.99
2017-08-19T05:53:49.361Z,99.99
2017-08-19T05:54:49.949Z,99.99
2017-08-19T05:55:50.525Z,99.99
2017-08-19T05:56:51.136Z,99.99
2017-08-19T05:57:51.688Z,99.99
2017-08-19T05:58:52.266Z,99.99
2017-08-19T05:59:52.841Z,99.99
2017-08-19T06:00:53.415Z,99.99
2017-08-19T06:01:53.991Z,99.99
2017-08-19T06:02:54.566Z,99.99
2017-08-19T06:03:55.143Z,99.99
2017-08-19T06:04:55.719Z,99.99
2017-08-19T06:05:56.293Z,99.99
2017-08-19T06:06:56.872Z,99.99
2017-08-19T06:07:57.444Z,99.99
2017-08-19T06:08:58.021Z,99.99
2017-08-19T06:09:58.600Z,99.99
2017-08-19T06:10:59.172Z,99.99
2017-08-19T06:11:59.748Z,99.99
2017-08-19T06:13:00.323Z,99.99
2017-08-19T06:14:00.899Z,99.99
2017-08-19T06:15:01.477Z,99.99
2017-08-19T06:16:02.052Z,99.99
2017-08-19T06:17:02.627Z,99.99
2017-08-19T06:18:03.203Z,99.99
2017-08-19T06:19:03.780Z,99.99
2017-08-19T06:20:04.357Z,99.99
2017-08-19T06:21:04.934Z,99.99
2017-08-19T06:22:05.509Z,99.99
2017-08-19T06:23:06.096Z,99.99
2017-08-19T06:24:06.673Z,99.99
2017-08-19T06:25:07.248Z,99.99
2017-08-19T06:26:07.822Z,99.99
2017-08-19T06:27:08.400Z,99.99
2017-08-19T06:28:08.988Z,99.99
2017-08-19T06:29:09.565Z,99.99
2017-08-19T06:30:10.153Z,99.99
2017-08-19T06:31:10.732Z,99.99
2017-08-19T06:32:11.307Z,99.99
2017-08-19T06:33:11.884Z,99.99
2017-08-19T06:34:12.470Z,99.99
2017-08-19T06:35:13.038Z,99.99
2017-08-19T06:36:13.612Z,99.99
2017-08-19T06:37:14.198Z,99.99
2017-08-19T06:38:14.778Z,99.99
2017-08-19T06:39:15.356Z,99.99
2017-08-19T06:40:15.931Z,99.99
2017-08-19T06:41:16.507Z,99.99
2017-08-19T06:42:17.105Z,99.99
2017-08-19T06:43:17.660Z,99.99
2017-08-19T06:44:18.237Z,99.99
2017-08-19T06:45:18.814Z,99.99
2017-08-19T06:46:19.389Z,99.99
2017-08-19T06:47:19.964Z,99.99
2017-08-19T06:48:20.540Z,99.99
2017-08-19T06:49:21.118Z,99.99
2017-08-19T06:50:21.693Z,99.99
2017-08-19T06:51:22.270Z,99.99
2017-08-19T06:52:22.861Z,99.99
2017-08-19T06:53:23.444Z,99.99
2017-08-19T06:54:24.021Z,99.99
2017-08-19T06:55:24.599Z,99.99
2017-08-19T06:56:25.180Z,99.99
2017-08-19T06:57:25.757Z,99.99
2017-08-19T06:58:26.335Z,99.99
2017-08-19T06:59:26.911Z,99.99
2017-08-19T07:00:27.487Z,99.99
2017-08-19T07:01:28.063Z,99.99
2017-08-19T07:02:28.638Z,99.99
2017-08-19T07:03:29.215Z,99.99
2017-08-19T07:04:29.792Z,99.99
2017-08-19T07:05:30.368Z,99.99
2017-08-19T07:06:30.943Z,99.99
2017-08-19T07:07:31.520Z,99.99
2017-08-19T07:08:32.097Z,99.99
2017-08-19T07:09:32.673Z,99.99
2017-08-19T07:10:33.251Z,99.99
2017-08-19T07:11:33.826Z,99.99
2017-08-19T07:12:34.403Z,99.99
2017-08-19T07:13:34.980Z,99.99
2017-08-19T07:14:35.556Z,99.99
2017-08-19T07:15:36.134Z,99.99
2017-08-19T07:16:36.709Z,99.99
2017-08-19T07:17:37.285Z,99.99
2017-08-19T07:18:37.863Z,99.99
2017-08-19T07:19:38.440Z,99.99
2017-08-19T07:20:39.016Z,99.99
2017-08-19T07:21:39.591Z,99.99
2017-08-19T07:22:40.165Z,99.99
2017-08-19T07:23:40.740Z,99.99
2017-08-19T07:24:41.314Z,99.99
2017-08-19T07:25:41.891Z,99.99
2017-08-19T07:26:42.769Z,99.99
2017-08-19T07:27:43.344Z,99.99
2017-08-19T07:28:43.920Z,99.99
2017-08-19T07:29:44.495Z,99.99
2017-08-19T07:30:45.074Z,99.99
2017-08-19T07:31:45.650Z,99.99
2017-08-19T07:32:46.227Z,99.99
2017-08-19T07:33:46.803Z,99.99
2017-08-19T07:34:47.392Z,99.99
2017-08-19T07:35:47.967Z,99.99
2017-08-19T07:36:48.544Z,99.99
2017-08-19T07:37:49.119Z,99.99
2017-08-19T07:38:49.707Z,99.99
2017-08-19T07:39:50.274Z,99.99
2017-08-19T07:40:50.850Z,99.99
2017-08-19T07:41:51.426Z,99.99
2017-08-19T07:42:52.006Z,99.99
2017-08-19T07:43:52.581Z,99.99
2017-08-19T07:44:53.157Z,99.99
2017-08-19T07:45:53.734Z,99.99
2017-08-19T07:46:54.322Z,99.99
2017-08-19T07:47:54.899Z,99.99
2017-08-19T07:48:55.474Z,99.99
2017-08-19T07:49:56.049Z,99.99
2017-08-19T07:50:56.630Z,99.99
2017-08-19T07:51:57.204Z,99.99
2017-08-19T07:52:57.779Z,99.99
2017-08-19T07:53:58.356Z,99.99
2017-08-19T07:54:58.931Z,99.99
2017-08-19T07:55:59.507Z,99.99
2017-08-19T07:57:00.085Z,99.99
2017-08-19T07:58:00.662Z,99.99
2017-08-19T07:59:01.251Z,99.99
2017-08-19T08:00:01.829Z,99.99
2017-08-19T08:01:02.405Z,99.99
2017-08-19T08:02:02.981Z,99.99
2017-08-19T08:03:03.556Z,99.99
2017-08-19T08:04:04.132Z,99.99
2017-08-19T08:05:04.711Z,99.99
2017-08-19T08:06:05.287Z,99.99
2017-08-19T08:07:05.865Z,99.99
2017-08-19T08:08:06.441Z,99.99
2017-08-19T08:09:07.016Z,99.99
2017-08-19T08:10:07.594Z,99.99
2017-08-19T08:11:08.182Z,99.99
2017-08-19T08:12:08.760Z,99.99
2017-08-19T08:13:09.337Z,99.99
2017-08-19T08:14:09.912Z,99.99
2017-08-19T08:15:10.488Z,99.99
2017-08-19T08:16:11.064Z,99.99
2017-08-19T08:17:11.640Z,99.99
2017-08-19T08:18:12.228Z,99.99
2017-08-19T08:19:12.804Z,99.99
2017-08-19T08:20:13.380Z,99.99
2017-08-19T08:21:13.958Z,99.99
2017-08-19T08:22:14.537Z,99.99
2017-08-19T08:23:15.112Z,99.99
2017-08-19T08:24:15.692Z,99.99
2017-08-19T08:25:16.276Z,99.99
2017-08-19T08:26:16.854Z,99.99
2017-08-19T08:27:17.428Z,99.99
2017-08-19T08:28:18.006Z,99.99
2017-08-19T08:29:18.585Z,99.99
2017-08-19T08:30:19.161Z,99.99
2017-08-19T08:31:19.738Z,99.99
2017-08-19T08:32:20.316Z,99.99
2017-08-19T08:33:20.892Z,99.99
2017-08-19T08:34:21.474Z,99.99
2017-08-19T08:35:22.047Z,99.99
2017-08-19T08:36:22.623Z,99.99
2017-08-19T08:37:23.200Z,99.99
2017-08-19T08:38:23.777Z,99.99
2017-08-19T08:39:24.356Z,99.99
2017-08-19T08:40:24.935Z,99.99
2017-08-19T08:41:25.509Z,99.99
2017-08-19T08:42:26.085Z,99.99
2017-08-19T08:43:26.663Z,99.99
2017-08-19T08:44:27.252Z,99.99
2017-08-19T08:45:27.828Z,99.99
2017-08-19T08:46:28.406Z,99.99
2017-08-19T08:47:28.983Z,99.99
2017-08-19T08:48:29.560Z,99.99
2017-08-19T08:49:30.136Z,99.99
2017-08-19T08:50:30.712Z,99.99
2017-08-19T08:51:31.289Z,99.99
2017-08-19T08:52:31.877Z,99.99
2017-08-19T08:53:32.456Z,99.99
2017-08-19T08:54:33.033Z,99.99
2017-08-19T08:55:33.612Z,99.99
2017-08-19T08:56:34.189Z,99.99
2017-08-19T08:57:34.771Z,99.99
2017-08-19T08:58:35.344Z,99.99
2017-08-19T08:59:35.932Z,99.99
2017-08-19T09:00:36.509Z,99.99
2017-08-19T09:01:37.098Z,99.99
2017-08-19T09:02:37.686Z,99.99
2017-08-19T09:03:38.264Z,99.99
2017-08-19T09:04:38.842Z,99.99
2017-08-19T09:05:39.419Z,99.99
2017-08-19T09:06:39.995Z,99.99
2017-08-19T09:07:40.573Z,99.99
2017-08-19T09:08:41.150Z,99.99
2017-08-19T09:09:41.727Z,99.99
2017-08-19T09:10:42.315Z,99.99
2017-08-19T09:11:42.892Z,99.99
2017-08-19T09:12:43.470Z,99.99
2017-08-19T09:13:44.048Z,99.99
2017-08-19T09:14:44.638Z,99.99
2017-08-19T09:15:45.224Z,99.99
2017-08-19T09:16:45.802Z,99.99
2017-08-19T09:17:46.379Z,99.99
2017-08-19T09:18:46.956Z,99.99
2017-08-19T09:19:47.534Z,99.99
2017-08-19T09:20:48.124Z,99.99
2017-08-19T09:21:48.708Z,99.99
2017-08-19T09:22:49.281Z,99.99
2017-08-19T09:23:49.858Z,99.99
2017-08-19T09:24:50.434Z,99.99
2017-08-19T09:25:51.013Z,99.99
2017-08-19T09:26:51.591Z,99.99
2017-08-19T09:27:52.170Z,99.99
2017-08-19T09:28:52.745Z,99.99
2017-08-19T09:29:53.322Z,99.99
2017-08-19T09:30:53.912Z,99.99
2017-08-19T09:31:54.488Z,99.99
2017-08-19T09:32:55.065Z,99.99
2017-08-19T09:33:55.643Z,99.99
2017-08-19T09:34:56.234Z,99.99
2017-08-19T09:35:56.810Z,99.99
2017-08-19T09:36:57.397Z,99.99
2017-08-19T09:37:57.976Z,99.99
2017-08-19T09:38:58.553Z,99.99
2017-08-19T09:39:59.131Z,99.99
2017-08-19T09:40:59.708Z,99.99
2017-08-19T09:42:00.294Z,99.99
2017-08-19T09:43:00.873Z,99.99
2017-08-19T09:44:01.450Z,99.99
2017-08-19T09:45:02.028Z,99.99
2017-08-19T09:46:02.605Z,99.99
2017-08-19T09:47:03.183Z,99.99
2017-08-19T09:48:03.762Z,99.99
2017-08-19T09:49:04.339Z,99.99
2017-08-19T09:50:04.915Z,99.99
2017-08-19T09:51:05.494Z,99.01
2017-08-19T09:52:06.072Z,96.99
2017-08-19T09:53:06.650Z,96.80
2017-08-19T09:54:07.231Z,97.76
2017-08-19T09:55:07.818Z,98.67
2017-08-19T09:56:08.395Z,99.96
2017-08-19T09:57:08.973Z,99.87
2017-08-19T09:58:09.549Z,99.99
2017-08-19T09:59:10.125Z,98.91
2017-08-19T10:00:10.702Z,99.87
2017-08-19T10:01:11.282Z,99.99
2017-08-19T10:02:11.858Z,99.99
2017-08-19T10:03:12.437Z,99.96
2017-08-19T10:04:13.014Z,99.99
2017-08-19T10:05:13.590Z,99.99
2017-08-19T10:06:14.183Z,99.10
2017-08-19T10:07:14.784Z,98.24
2017-08-19T10:08:15.346Z,98.33
2017-08-19T10:09:15.924Z,98.91
2017-08-19T10:10:16.502Z,98.10
2017-08-19T10:11:17.079Z,98.28
2017-08-19T10:12:17.658Z,99.05
2017-08-19T10:13:18.236Z,98.72
2017-08-19T10:14:18.826Z,99.05
2017-08-19T10:15:19.404Z,99.77
2017-08-19T10:16:19.985Z,99.99
2017-08-19T10:17:20.563Z,99.48
2017-08-19T10:18:21.142Z,98.33
2017-08-19T10:19:21.719Z,98.72
2017-08-19T10:20:22.298Z,98.91
2017-08-19T10:21:22.874Z,98.10
2017-08-19T10:22:23.452Z,97.14
2017-08-19T10:23:24.032Z,97.38
2017-08-19T10:24:24.610Z,95.55
2017-08-19T10:25:25.189Z,95.17
2017-08-19T10:26:25.779Z,95.75
2017-08-19T10:27:26.356Z,95.46
2017-08-19T10:28:26.933Z,94.88
2017-08-19T10:29:27.512Z,95.07
2017-08-19T10:30:28.091Z,95.94
2017-08-19T10:31:28.671Z,95.36
2017-08-19T10:32:29.249Z,94.79
2017-08-19T10:33:29.826Z,95.50
2017-08-19T10:34:30.405Z,95.89
2017-08-19T10:35:30.984Z,94.07
2017-08-19T10:36:31.563Z,93.10
2017-08-19T10:37:32.141Z,93.30
2017-08-19T10:38:32.720Z,94.07
2017-08-19T10:39:33.301Z,93.39
2017-08-19T10:40:33.880Z,93.77
2017-08-19T10:41:34.459Z,93.54
2017-08-19T10:42:35.042Z,91.13
2017-08-19T10:43:35.617Z,90.70
2017-08-19T10:44:36.198Z,91.28
2017-08-19T10:45:36.776Z,90.80
2017-08-19T10:46:37.354Z,92.72
2017-08-19T10:47:37.947Z,91.14
2017-08-19T10:48:38.526Z,91.42
2017-08-19T10:49:39.102Z,93.35
2017-08-19T10:50:39.684Z,92.58
2017-08-19T10:51:40.262Z,93.49
2017-08-19T10:52:40.842Z,91.05
2017-08-19T10:53:41.421Z,91.47
2017-08-19T10:54:42.001Z,91.13
2017-08-19T10:55:42.581Z,90.66
2017-08-19T10:56:43.160Z,89.69
2017-08-19T10:57:43.739Z,88.93
2017-08-19T10:58:44.319Z,90.27
2017-08-19T10:59:44.910Z,90.42
2017-08-19T11:00:45.487Z,91.76
2017-08-19T11:01:46.066Z,91.05
2017-08-19T11:02:46.645Z,91.05
2017-08-19T11:03:47.224Z,92.24
2017-08-19T11:04:47.802Z,91.66
2017-08-19T11:05:48.380Z,92.33
2017-08-19T11:06:48.959Z,92.14
2017-08-19T11:07:49.539Z,92.14
2017-08-19T11:08:50.151Z,92.43
2017-08-19T11:09:50.708Z,91.86
2017-08-19T11:10:51.287Z,91.86
2017-08-19T11:11:51.866Z,91.57
2017-08-19T11:12:52.444Z,91.62
2017-08-19T11:13:53.024Z,92.33
2017-08-19T11:14:53.614Z,92.29
2017-08-19T11:15:54.200Z,91.57
2017-08-19T11:16:54.774Z,92.77
2017-08-19T11:17:55.354Z,92.29
2017-08-19T11:18:55.944Z,92.10
2017-08-19T11:19:56.525Z,91.28
2017-08-19T11:20:57.103Z,91.33
2017-08-19T11:21:57.682Z,90.70
2017-08-19T11:22:58.263Z,90.42
2017-08-19T11:23:58.843Z,90.42
2017-08-19T11:24:59.435Z,90.66
2017-08-19T11:26:00.013Z,89.89
2017-08-19T11:27:00.594Z,90.27
2017-08-19T11:28:01.175Z,90.84
2017-08-19T11:29:01.755Z,89.98
2017-08-19T11:30:02.336Z,90.46
2017-08-19T11:31:02.929Z,90.08
2017-08-19T11:32:03.508Z,90.94
2017-08-19T11:33:04.097Z,90.46
2017-08-19T11:34:04.676Z,90.17
2017-08-19T11:35:05.255Z,89.83
2017-08-19T11:36:05.836Z,89.26
2017-08-19T11:37:06.416Z,88.78
2017-08-19T11:38:06.994Z,88.97
2017-08-19T11:39:07.574Z,88.97
2017-08-19T11:40:08.151Z,88.63
2017-08-19T11:41:08.731Z,87.57
2017-08-19T11:42:09.311Z,88.10
2017-08-19T11:43:09.889Z,88.01
2017-08-19T11:44:10.470Z,89.50
2017-08-19T11:45:11.048Z,87.19
2017-08-19T11:46:11.628Z,87.19
2017-08-19T11:47:12.208Z,86.99
2017-08-19T11:48:12.787Z,87.05
2017-08-19T11:49:13.378Z,88.68
2017-08-19T11:50:13.959Z,88.59
2017-08-19T11:51:14.539Z,88.24
2017-08-19T11:52:15.117Z,87.86
2017-08-19T11:53:15.697Z,86.22
2017-08-19T11:54:16.279Z,86.52
2017-08-19T11:55:16.857Z,86.66
2017-08-19T11:56:17.436Z,87.15
2017-08-19T11:57:18.016Z,86.76
2017-08-19T11:58:18.597Z,86.71
2017-08-19T11:59:19.188Z,85.84
2017-08-19T12:00:19.778Z,86.42
2017-08-19T12:01:20.356Z,86.18
2017-08-19T12:02:20.936Z,86.66
2017-08-19T12:03:21.535Z,86.85
2017-08-19T12:04:22.105Z,86.72
2017-08-19T12:05:22.687Z,87.68
2017-08-19T12:06:23.265Z,87.10
2017-08-19T12:07:23.846Z,87.87
2017-08-19T12:08:24.424Z,89.12
2017-08-19T12:09:25.002Z,87.68
2017-08-19T12:10:25.584Z,87.87
2017-08-19T12:11:26.162Z,88.73
2017-08-19T12:12:26.743Z,88.93
2017-08-19T12:13:27.322Z,91.09
2017-08-19T12:14:27.913Z,91.47
2017-08-19T12:15:28.492Z,92.72
2017-08-19T12:16:29.070Z,91.76
2017-08-19T12:17:29.651Z,91.81
2017-08-19T12:18:30.230Z,91.52
2017-08-19T12:19:30.806Z,92.29
2017-08-19T12:20:31.385Z,91.28
2017-08-19T12:21:31.965Z,92.63
2017-08-19T12:22:32.544Z,93.20
2017-08-19T12:23:33.123Z,93.97
2017-08-19T12:24:33.702Z,94.54
2017-08-19T12:25:34.282Z,94.64
2017-08-19T12:26:34.866Z,95.26
2017-08-19T12:27:35.441Z,96.27
2017-08-19T12:28:36.021Z,95.60
2017-08-19T12:29:36.611Z,94.74
2017-08-19T12:30:37.190Z,94.16
2017-08-19T12:31:37.770Z,91.47
2017-08-19T12:33:21.596Z,90.42
2017-08-19T12:34:22.174Z,91.47
2017-08-19T12:35:22.753Z,91.66
2017-08-19T12:36:23.332Z,91.66
2017-08-19T12:37:23.910Z,91.09
2017-08-19T12:38:24.489Z,92.68
2017-08-19T12:39:25.069Z,93.54
2017-08-19T12:40:25.647Z,95.26
2017-08-19T12:41:26.239Z,95.84
2017-08-19T12:42:26.818Z,97.33
2017-08-19T12:43:27.396Z,98.96
2017-08-19T12:44:27.975Z,98.57
2017-08-19T12:45:28.555Z,99.24
2017-08-19T12:46:29.134Z,99.99
2017-08-19T12:47:29.726Z,99.77
2017-08-19T12:48:30.306Z,99.96
2017-08-19T12:49:30.882Z,99.20
2017-08-19T12:50:31.461Z,97.09
2017-08-19T12:51:32.040Z,95.84
2017-08-19T12:52:32.625Z,93.68
2017-08-19T12:53:33.201Z,93.59
2017-08-19T12:54:33.778Z,90.18
2017-08-19T12:55:34.356Z,89.79
2017-08-19T12:56:34.938Z,88.93
2017-08-19T12:57:35.525Z,89.51
2017-08-19T12:58:36.104Z,89.41
2017-08-19T12:59:36.681Z,89.03
2017-08-19T13:00:37.259Z,89.03